Time;durP1;ratioP1;P1;durP2;ratioP2;P2;SDS_P1;SDS_P2;PMS_P1;PMS_P2;Temp;Humidity;BMP_temperature;BMP_pressure;BME280_temperature;BME280_humidity;BME280_pressure;Samples;Min_cycle;Max_cycle;Signal;HPM_P1;HPM_P2
2022/10/14 00:01:54;;;;;;;7.95;5.25;;;12.30;99.90;;;;;;5048930;28;20289;-86
2022/10/14 00:04:35;;;;;;;11.75;5.18;;;12.40;99.90;;;;;;5058805;28;20206;-85
2022/10/14 00:07:10;;;;;;;11.90;5.53;;;12.40;99.90;;;;;;5061602;28;20252;-86
2022/10/14 00:09:41;;;;;;;6.38;5.30;;;12.40;99.90;;;;;;5053866;28;20204;-86
2022/10/14 00:16:05;;;;;;;7.55;4.70;;;12.30;99.90;;;;;;5050248;28;20205;-85
2022/10/14 00:22:29;;;;;;;9.48;4.25;;;12.30;99.90;;;;;;5058173;28;20272;-86
2022/10/14 00:24:56;;;;;;;7.07;3.97;;;12.30;99.90;;;;;;5043739;28;20205;-85
2022/10/14 00:27:29;;;;;;;5.13;4.32;;;12.30;99.90;;;;;;5043709;28;20295;-85
2022/10/14 00:29:56;;;;;;;7.85;4.57;;;12.30;99.90;;;;;;5058939;28;20559;-85
2022/10/14 00:32:52;;;;;;;5.07;4.18;;;12.50;99.90;;;;;;5050208;28;20288;-86
2022/10/14 00:35:35;;;;;;;6.47;3.53;;;12.50;99.90;;;;;;5053627;28;20277;-85
2022/10/14 00:38:12;;;;;;;6.32;4.05;;;12.50;99.90;;;;;;5044568;28;20276;-85
2022/10/14 00:40:53;;;;;;;4.22;3.70;;;12.50;99.90;;;;;;5053246;28;20687;-85
2022/10/14 00:43:56;;;;;;;5.78;3.75;;;12.50;99.90;;;;;;5047580;28;20204;-85
2022/10/14 00:46:30;;;;;;;6.60;3.75;;;12.50;99.90;;;;;;5053374;28;20196;-86
2022/10/14 00:48:58;;;;;;;6.22;3.95;;;12.50;99.90;;;;;;5070258;28;20202;-85
2022/10/14 00:55:13;;;;;;;4.53;3.55;;;12.40;99.90;;;;;;5057386;28;20220;-87
2022/10/14 00:58:04;;;;;;;5.80;4.40;;;12.40;99.90;;;;;;5062383;28;20276;-86
2022/10/14 01:00:31;;;;;;;4.18;3.42;;;12.50;99.90;;;;;;5060674;28;20656;-87
2022/10/14 01:03:20;;;;;;;4.22;3.83;;;12.50;99.90;;;;;;5048491;28;20274;-85
2022/10/14 01:06:07;;;;;;;7.72;3.58;;;12.50;99.90;;;;;;5050825;28;20210;-85
2022/10/14 01:08:41;;;;;;;5.32;3.63;;;12.50;99.90;;;;;;5053519;28;20280;-85
2022/10/14 01:11:59;;;;;;;8.82;3.67;;;12.50;99.90;;;;;;5057914;28;20203;-85
2022/10/14 01:14:45;;;;;;;7.15;3.53;;;12.50;99.90;;;;;;5050673;28;20592;-86
2022/10/14 01:17:33;;;;;;;4.95;3.63;;;12.50;99.90;;;;;;5048393;28;20216;-85
2022/10/14 01:20:36;;;;;;;4.57;3.60;;;12.40;99.90;;;;;;5057215;28;20197;-85
2022/10/14 01:23:21;;;;;;;4.90;3.47;;;12.40;99.90;;;;;;4998492;28;20291;-85
2022/10/14 01:26:09;;;;;;;4.97;3.53;;;12.40;99.90;;;;;;5005630;28;20194;-85
2022/10/14 01:28:48;;;;;;;5.18;3.78;;;12.40;99.90;;;;;;4995366;28;20218;-85
2022/10/14 01:31:50;;;;;;;6.07;3.17;;;12.40;99.90;;;;;;4995996;28;20762;-85
2022/10/14 01:34:24;;;;;;;5.15;3.08;;;12.40;99.90;;;;;;5006102;28;20233;-86
2022/10/14 01:37:13;;;;;;;5.38;2.70;;;12.20;99.90;;;;;;5010049;28;20337;-86
2022/10/14 01:39:51;;;;;;;4.82;3.15;;;12.20;99.90;;;;;;5006568;28;20263;-85
2022/10/14 01:46:16;;;;;;;2.90;2.50;;;12.20;99.90;;;;;;4994771;28;20740;-85
2022/10/14 01:49:28;;;;;;;3.03;2.60;;;12.20;99.90;;;;;;5002877;28;20287;-86
2022/10/14 01:52:06;;;;;;;2.47;2.22;;;12.20;99.90;;;;;;4992599;28;20310;-85
2022/10/14 01:55:13;;;;;;;3.08;2.30;;;12.20;99.90;;;;;;4988977;28;20716;-85
2022/10/14 01:57:44;;;;;;;4.53;2.22;;;12.20;99.90;;;;;;5006994;28;20290;-85
2022/10/14 02:00:17;;;;;;;2.50;2.30;;;12.30;99.90;;;;;;5029736;28;20280;-85
2022/10/14 02:03:04;;;;;;;2.75;1.88;;;12.30;99.90;;;;;;5059638;28;20201;-85
2022/10/14 02:12:53;;;;;;;2.08;1.85;;;12.30;99.90;;;;;;5055547;28;20587;-85
2022/10/14 02:15:25;;;;;;;6.45;2.08;;;12.30;99.90;;;;;;5057512;28;20296;-85
2022/10/14 02:18:16;;;;;;;3.10;2.03;;;12.30;99.90;;;;;;5062932;28;20266;-86
2022/10/14 02:21:07;;;;;;;3.33;1.73;;;12.20;99.90;;;;;;5060496;28;20668;-86
2022/10/14 02:24:02;;;;;;;4.22;2.20;;;12.10;99.90;;;;;;5056497;28;20225;-85
2022/10/14 02:26:49;;;;;;;2.30;1.92;;;12.10;99.90;;;;;;5061323;28;20709;-86
2022/10/14 02:29:18;;;;;;;6.10;2.17;;;12.10;99.90;;;;;;5059598;28;20583;-87
2022/10/14 02:31:54;;;;;;;3.53;1.90;;;12.00;99.90;;;;;;5058079;28;20202;-86
2022/10/14 02:34:29;;;;;;;3.72;2.15;;;12.00;99.90;;;;;;5053993;28;20308;-86
2022/10/14 02:37:06;;;;;;;6.05;2.17;;;11.90;99.90;;;;;;5053113;28;20197;-85
2022/10/14 02:40:00;;;;;;;3.67;2.00;;;12.00;99.90;;;;;;5051550;28;20596;-86
2022/10/14 02:49:09;;;;;;;2.35;2.08;;;12.10;99.90;;;;;;5062089;28;20521;-87
2022/10/14 02:51:47;;;;;;;3.53;2.20;;;12.20;99.90;;;;;;5053729;28;20196;-86
2022/10/14 02:54:14;;;;;;;3.20;2.10;;;12.10;99.90;;;;;;5045468;28;20285;-86
2022/10/14 02:57:10;;;;;;;3.00;2.00;;;12.20;99.90;;;;;;5050555;28;20630;-86
2022/10/14 02:59:47;;;;;;;3.35;2.10;;;12.20;99.90;;;;;;5045816;28;20282;-85
2022/10/14 03:02:58;;;;;;;2.40;2.20;;;12.20;99.90;;;;;;5054850;28;20211;-86
2022/10/14 03:05:48;;;;;;;3.42;1.95;;;12.20;99.90;;;;;;5049915;28;20337;-85
2022/10/14 03:08:23;;;;;;;3.63;2.10;;;12.20;99.90;;;;;;5060094;28;20189;-85
2022/10/14 03:10:50;;;;;;;4.72;2.30;;;12.20;99.90;;;;;;5062131;28;20284;-85
2022/10/14 03:13:17;;;;;;;4.05;1.83;;;12.10;99.90;;;;;;5048932;28;20195;-85
2022/10/14 03:15:48;;;;;;;3.70;2.10;;;12.20;99.90;;;;;;5056998;28;20200;-85
2022/10/14 03:18:23;;;;;;;2.42;2.00;;;12.10;99.90;;;;;;5057358;28;20253;-85
2022/10/14 03:21:00;;;;;;;3.97;2.17;;;12.10;99.90;;;;;;5057105;28;20257;-85
2022/10/14 03:23:29;;;;;;;4.10;2.30;;;12.20;99.90;;;;;;5053449;28;20288;-85
2022/10/14 03:25:56;;;;;;;4.90;2.33;;;12.20;99.90;;;;;;5044502;28;20194;-86
2022/10/14 03:28:22;;;;;;;3.72;2.05;;;12.30;99.90;;;;;;5054889;28;20589;-86
2022/10/14 03:30:53;;;;;;;3.92;2.03;;;12.20;99.90;;;;;;5057562;28;20197;-85
2022/10/14 03:33:23;;;;;;;2.70;2.50;;;12.20;99.90;;;;;;5060546;28;20190;-87
2022/10/14 03:36:00;;;;;;;2.95;2.28;;;12.20;99.90;;;;;;5058412;28;20265;-85
2022/10/14 03:38:35;;;;;;;2.05;1.85;;;12.30;99.90;;;;;;5056480;28;20296;-87
2022/10/14 03:41:11;;;;;;;2.67;2.40;;;12.30;99.90;;;;;;5051628;28;20208;-85
2022/10/14 03:43:37;;;;;;;2.53;2.10;;;12.20;99.90;;;;;;5052594;28;20212;-85
2022/10/14 03:46:11;;;;;;;3.08;2.60;;;12.20;99.90;;;;;;5055077;28;20284;-86
2022/10/14 03:48:53;;;;;;;3.03;2.40;;;12.10;99.90;;;;;;5047246;28;20664;-86
2022/10/14 03:51:22;;;;;;;3.97;2.72;;;12.10;99.90;;;;;;5057594;28;20193;-86
2022/10/14 03:53:49;;;;;;;3.00;2.70;;;12.00;99.90;;;;;;5043839;28;20764;-86
2022/10/14 03:56:16;;;;;;;8.70;2.60;;;12.10;99.90;;;;;;5053811;28;20190;-85
2022/10/14 03:58:43;;;;;;;4.75;2.90;;;12.00;99.90;;;;;;5066253;28;20285;-86
2022/10/14 04:01:10;;;;;;;2.97;2.67;;;12.10;99.90;;;;;;5060716;28;20356;-87
2022/10/14 04:03:45;;;;;;;4.35;3.72;;;12.10;99.90;;;;;;5056348;28;20208;-86
2022/10/14 04:06:17;;;;;;;3.92;2.83;;;12.20;99.90;;;;;;5049850;28;20225;-85
2022/10/14 04:08:54;;;;;;;3.80;2.63;;;12.30;99.90;;;;;;5056505;28;20666;-85
2022/10/14 04:11:21;;;;;;;7.95;2.90;;;12.30;99.90;;;;;;5054428;28;20216;-85
2022/10/14 04:13:53;;;;;;;4.15;2.92;;;12.30;99.90;;;;;;5053773;28;20270;-85
2022/10/14 04:16:20;;;;;;;3.38;2.60;;;12.30;99.90;;;;;;5043897;28;20221;-85
2022/10/14 04:18:47;;;;;;;2.78;2.53;;;12.20;99.90;;;;;;5058802;28;20189;-86
2022/10/14 04:21:17;;;;;;;3.40;2.65;;;12.20;99.90;;;;;;5056490;28;20272;-85
2022/10/14 04:23:44;;;;;;;8.93;3.10;;;12.20;99.90;;;;;;5060870;28;20668;-86
2022/10/14 04:26:12;;;;;;;6.45;2.80;;;12.20;99.90;;;;;;5057172;28;20230;-86
2022/10/14 04:28:39;;;;;;;3.65;2.60;;;12.20;99.90;;;;;;5047762;28;20278;-86
2022/10/14 04:31:11;;;;;;;3.15;2.58;;;12.20;99.90;;;;;;5052433;28;20571;-86
2022/10/14 04:33:38;;;;;;;3.47;2.58;;;12.20;99.90;;;;;;5057229;28;20634;-85
2022/10/14 04:36:06;;;;;;;4.97;2.72;;;12.20;99.90;;;;;;5051943;28;20228;-86
2022/10/14 04:38:33;;;;;;;5.18;2.70;;;12.20;99.90;;;;;;5055363;28;20672;-86
2022/10/14 04:41:12;;;;;;;3.45;2.58;;;12.20;99.90;;;;;;5050878;28;20664;-86
2022/10/14 04:44:10;;;;;;;3.53;2.50;;;12.20;99.90;;;;;;5065877;28;20202;-85
2022/10/14 04:46:58;;;;;;;4.20;3.15;;;12.10;99.90;;;;;;5044943;28;20290;-86
2022/10/14 04:49:41;;;;;;;5.05;2.72;;;12.00;99.90;;;;;;5050217;28;20273;-85
2022/10/14 04:52:11;;;;;;;3.00;2.60;;;12.00;99.90;;;;;;5054808;28;20222;-85
2022/10/14 04:54:47;;;;;;;2.80;2.60;;;12.10;99.90;;;;;;5053686;28;20241;-85
2022/10/14 04:57:36;;;;;;;3.70;2.60;;;12.00;99.90;;;;;;5053380;28;20225;-86
2022/10/14 05:00:16;;;;;;;7.80;3.00;;;12.00;99.90;;;;;;5048893;28;20280;-85
2022/10/14 05:02:53;;;;;;;3.65;2.42;;;12.10;99.90;;;;;;5058498;28;20189;-85
2022/10/14 05:05:20;;;;;;;3.55;2.22;;;12.10;99.90;;;;;;5050122;28;20228;-86
2022/10/14 05:07:53;;;;;;;4.10;2.38;;;12.10;99.90;;;;;;5056085;28;20257;-85
2022/10/14 05:10:23;;;;;;;3.45;2.78;;;12.10;99.90;;;;;;5060483;28;20696;-88
2022/10/14 05:12:51;;;;;;;4.25;2.90;;;12.00;99.90;;;;;;5058414;28;20335;-86
2022/10/14 05:15:18;;;;;;;4.88;2.78;;;12.00;99.90;;;;;;5049096;28;20314;-86
2022/10/14 05:17:47;;;;;;;3.28;2.70;;;12.00;99.90;;;;;;5049609;28;20193;-87
2022/10/14 05:20:41;;;;;;;3.75;2.53;;;12.00;99.90;;;;;;5060318;28;20228;-85
2022/10/14 05:23:17;;;;;;;4.20;2.47;;;11.90;99.90;;;;;;5063721;28;20280;-86
2022/10/14 05:25:53;;;;;;;5.38;2.67;;;11.90;99.90;;;;;;5045045;28;20701;-86
2022/10/14 05:28:21;;;;;;;3.30;2.70;;;11.90;99.90;;;;;;5058940;28;20225;-84
2022/10/14 05:30:48;;;;;;;4.78;2.60;;;12.00;99.90;;;;;;5059634;28;20202;-85
2022/10/14 05:33:17;;;;;;;5.80;2.60;;;11.90;99.90;;;;;;5058502;28;20233;-86
2022/10/14 05:35:44;;;;;;;4.18;2.53;;;11.90;99.90;;;;;;5054228;28;20206;-86
2022/10/14 05:38:34;;;;;;;4.18;2.70;;;11.90;99.90;;;;;;5049261;28;20625;-86
2022/10/14 05:41:01;;;;;;;7.10;3.03;;;11.90;99.90;;;;;;5057453;28;20251;-85
2022/10/14 05:43:30;;;;;;;3.08;2.47;;;11.90;99.90;;;;;;5058573;28;20237;-85
2022/10/14 05:45:57;;;;;;;4.93;2.58;;;11.90;99.90;;;;;;5061321;28;20276;-85
2022/10/14 05:48:23;;;;;;;3.22;2.55;;;11.90;99.90;;;;;;5069959;28;20198;-86
2022/10/14 05:50:50;;;;;;;4.07;2.30;;;11.90;99.90;;;;;;5067429;28;20190;-85
2022/10/14 05:53:17;;;;;;;4.18;2.88;;;12.00;99.90;;;;;;5058761;28;20212;-86
2022/10/14 05:55:45;;;;;;;3.85;2.45;;;12.10;99.90;;;;;;5052630;28;20217;-87
2022/10/14 05:58:11;;;;;;;3.55;2.63;;;12.10;99.90;;;;;;5064354;28;20259;-86
2022/10/14 06:00:48;;;;;;;5.18;2.55;;;12.20;99.90;;;;;;5047829;28;20199;-85
2022/10/14 06:03:15;;;;;;;2.65;2.38;;;12.10;99.90;;;;;;5054423;28;20219;-86
2022/10/14 06:05:42;;;;;;;3.47;2.60;;;12.20;99.90;;;;;;5045428;28;20265;-85
2022/10/14 06:08:11;;;;;;;3.70;2.58;;;12.20;99.90;;;;;;5059687;28;20233;-85
2022/10/14 06:10:38;;;;;;;3.92;2.55;;;12.10;99.90;;;;;;5055472;28;20251;-86
2022/10/14 06:13:08;;;;;;;3.60;2.60;;;12.00;99.90;;;;;;5049113;28;20288;-85
2022/10/14 06:15:35;;;;;;;7.72;3.00;;;12.10;99.90;;;;;;5046664;28;20280;-85
2022/10/14 06:18:06;;;;;;;3.15;2.85;;;12.10;99.90;;;;;;5045958;28;20313;-86
2022/10/14 06:20:33;;;;;;;3.20;2.90;;;12.00;99.90;;;;;;5045573;28;20202;-85
2022/10/14 06:23:06;;;;;;;2.92;2.60;;;12.10;99.90;;;;;;5045063;28;20304;-86
2022/10/14 06:25:36;;;;;;;3.28;2.50;;;12.20;99.90;;;;;;5050093;28;20732;-86
2022/10/14 06:28:05;;;;;;;4.65;2.75;;;12.30;99.90;;;;;;5053485;28;20198;-87
2022/10/14 06:30:32;;;;;;;3.78;2.60;;;12.40;99.90;;;;;;5044026;28;20201;-85
2022/10/14 06:32:59;;;;;;;5.07;2.60;;;12.50;99.90;;;;;;5050977;28;20205;-85
2022/10/14 06:35:27;;;;;;;4.32;2.60;;;12.50;99.90;;;;;;5045213;28;20214;-85
2022/10/14 06:37:54;;;;;;;2.15;2.05;;;12.50;99.90;;;;;;5046788;28;20202;-85
2022/10/14 06:40:23;;;;;;;2.90;2.35;;;12.40;99.90;;;;;;5055629;28;20190;-85
2022/10/14 06:42:52;;;;;;;3.97;2.53;;;12.50;99.90;;;;;;5044636;28;20292;-85
2022/10/14 06:45:23;;;;;;;4.70;2.70;;;12.60;99.90;;;;;;5043714;28;20297;-84
2022/10/14 06:47:50;;;;;;;10.85;3.17;;;12.60;99.90;;;;;;5056816;28;20206;-84
2022/10/14 06:50:17;;;;;;;3.90;2.78;;;12.60;99.90;;;;;;5054483;28;20190;-85
2022/10/14 06:52:47;;;;;;;4.32;2.83;;;12.60;99.90;;;;;;5054097;28;20281;-84
2022/10/14 06:55:14;;;;;;;3.97;2.70;;;12.60;99.90;;;;;;5050282;28;22147;-84
2022/10/14 06:57:41;;;;;;;4.25;2.90;;;12.70;99.90;;;;;;5048449;28;20198;-86
2022/10/14 07:00:09;;;;;;;3.85;2.80;;;12.70;99.90;;;;;;5048332;28;20194;-85
2022/10/14 07:02:37;;;;;;;3.58;2.55;;;12.70;99.90;;;;;;5048386;28;20205;-85
2022/10/14 07:05:05;;;;;;;3.28;2.58;;;12.80;99.90;;;;;;5047761;28;20218;-85
2022/10/14 07:07:32;;;;;;;9.02;2.60;;;12.90;99.90;;;;;;5045842;28;20567;-84
2022/10/14 07:10:00;;;;;;;4.15;2.50;;;12.90;99.90;;;;;;5044277;28;20619;-85
2022/10/14 07:12:27;;;;;;;3.42;2.72;;;13.00;99.90;;;;;;5051761;28;20201;-84
2022/10/14 07:14:54;;;;;;;6.53;2.90;;;13.00;99.90;;;;;;5053329;28;20221;-85
2022/10/14 07:17:21;;;;;;;5.38;2.60;;;13.00;99.90;;;;;;5056604;28;20219;-85
2022/10/14 07:19:48;;;;;;;4.32;2.63;;;13.00;99.90;;;;;;5064009;28;20266;-84
2022/10/14 07:22:15;;;;;;;3.08;2.78;;;12.90;99.90;;;;;;5055951;28;20221;-85
2022/10/14 07:24:42;;;;;;;6.32;2.97;;;12.90;99.90;;;;;;5056064;28;20210;-86
2022/10/14 07:27:14;;;;;;;5.93;2.80;;;12.90;99.90;;;;;;5053002;28;20653;-85
2022/10/14 07:29:42;;;;;;;3.75;3.05;;;12.90;99.90;;;;;;5053511;28;20673;-85
2022/10/14 07:32:08;;;;;;;3.47;2.95;;;13.00;99.90;;;;;;5050837;28;20206;-84
2022/10/14 07:34:35;;;;;;;4.20;2.63;;;13.00;99.90;;;;;;5045270;28;20224;-87
2022/10/14 07:37:02;;;;;;;6.10;2.88;;;13.10;99.90;;;;;;5045955;28;20202;-84
2022/10/14 07:39:29;;;;;;;5.22;2.90;;;13.20;99.90;;;;;;5047735;28;20568;-86
2022/10/14 07:41:56;;;;;;;3.03;2.70;;;13.30;99.90;;;;;;5042198;28;20688;-85
2022/10/14 07:44:24;;;;;;;4.15;2.60;;;13.40;99.90;;;;;;5044304;28;20289;-85
2022/10/14 07:46:51;;;;;;;3.60;2.75;;;13.70;99.90;;;;;;5038630;28;20224;-85
2022/10/14 07:49:21;;;;;;;4.63;2.45;;;13.80;99.90;;;;;;5048311;28;20249;-86
2022/10/14 07:51:53;;;;;;;3.88;2.38;;;13.90;99.90;;;;;;5055978;28;20225;-89
2022/10/14 07:54:24;;;;;;;2.35;2.10;;;13.80;99.90;;;;;;5032133;28;20186;-87
2022/10/14 07:56:51;;;;;;;2.67;2.45;;;13.80;99.90;;;;;;5035942;28;20586;-85
2022/10/14 07:59:19;;;;;;;5.72;2.72;;;13.90;99.90;;;;;;5042497;28;20201;-84
2022/10/14 08:01:47;;;;;;;3.15;2.25;;;14.10;99.90;;;;;;5041923;28;20207;-85
2022/10/14 08:04:15;;;;;;;5.93;2.17;;;14.30;99.90;;;;;;5048419;28;20204;-85
2022/10/14 08:06:42;;;;;;;5.13;1.90;;;14.50;99.90;;;;;;5046330;28;20296;-86
2022/10/14 08:09:12;;;;;;;3.13;2.25;;;14.70;99.30;;;;;;5041894;28;20206;-91
2022/10/14 08:11:39;;;;;;;1.95;1.80;;;14.80;99.20;;;;;;5039307;28;20665;-85
2022/10/14 08:14:07;;;;;;;3.70;2.10;;;14.80;98.90;;;;;;5045694;28;20198;-85
2022/10/14 08:16:35;;;;;;;5.97;2.15;;;14.90;98.80;;;;;;5049996;28;20218;-85
2022/10/14 08:19:06;;;;;;;4.05;1.90;;;15.00;98.60;;;;;;5042973;28;20205;-85
2022/10/14 08:21:33;;;;;;;4.30;1.98;;;14.90;98.90;;;;;;5049619;28;20653;-85
2022/10/14 08:24:00;;;;;;;2.92;1.80;;;14.90;99.00;;;;;;5048785;28;20204;-85
2022/10/14 08:26:30;;;;;;;1.92;1.83;;;14.90;97.80;;;;;;5047722;28;20754;-87
2022/10/14 08:28:57;;;;;;;1.95;1.73;;;14.90;97.70;;;;;;5044253;28;20890;-85
2022/10/14 08:31:24;;;;;;;2.28;1.95;;;14.90;97.50;;;;;;5043668;28;20209;-85
2022/10/14 08:33:51;;;;;;;1.58;1.40;;;14.90;98.40;;;;;;5049592;28;20224;-85
2022/10/14 08:36:20;;;;;;;2.17;1.90;;;14.80;96.50;;;;;;5053841;28;20316;-86
2022/10/14 08:38:47;;;;;;;3.20;1.58;;;15.10;96.90;;;;;;5050289;28;20582;-85
2022/10/14 08:41:26;;;;;;;1.40;1.30;;;15.30;95.80;;;;;;5051756;28;20208;-87
2022/10/14 08:44:05;;;;;;;1.50;1.20;;;15.40;96.40;;;;;;5040233;28;20204;-85
2022/10/14 08:46:39;;;;;;;1.98;1.30;;;15.70;91.60;;;;;;5049060;28;20194;-84
2022/10/14 08:49:12;;;;;;;1.27;1.15;;;16.20;90.70;;;;;;5046061;28;20208;-85
2022/10/14 08:51:44;;;;;;;3.80;1.20;;;17.40;83.90;;;;;;5052120;28;20269;-82
2022/10/14 08:54:18;;;;;;;3.47;1.30;;;18.80;81.70;;;;;;5055016;28;20202;-84
2022/10/14 08:56:45;;;;;;;1.60;1.50;;;20.20;65.60;;;;;;5052867;28;20226;-81
2022/10/14 08:59:15;;;;;;;1.77;1.30;;;20.40;46.10;;;;;;5044650;28;20208;-81
2022/10/14 09:01:51;;;;;;;3.92;1.30;;;20.70;47.00;;;;;;5051057;28;20201;-81
2022/10/14 09:04:18;;;;;;;3.05;1.20;;;21.10;43.90;;;;;;5050735;28;20284;-84
2022/10/14 09:06:50;;;;;;;1.45;1.15;;;22.10;38.00;;;;;;5047133;28;20206;-84
2022/10/14 09:09:22;;;;;;;2.10;1.05;;;23.50;28.60;;;;;;5050913;28;20264;-80
2022/10/14 09:11:53;;;;;;;3.33;1.30;;;24.20;23.80;;;;;;5053437;28;20308;-82
2022/10/14 09:14:25;;;;;;;1.30;1.20;;;24.20;22.80;;;;;;5047519;28;20198;-80
2022/10/14 09:16:56;;;;;;;1.38;1.27;;;23.90;24.50;;;;;;5050725;28;20706;-80
2022/10/14 09:19:30;;;;;;;1.35;1.25;;;23.00;22.80;;;;;;5051269;28;20288;-81
2022/10/14 09:22:00;;;;;;;1.42;1.13;;;22.90;23.80;;;;;;5044970;28;20205;-80
2022/10/14 09:24:31;;;;;;;2.75;1.20;;;22.60;25.00;;;;;;5051610;28;20208;-81
2022/10/14 09:27:02;;;;;;;2.83;1.60;;;21.90;31.00;;;;;;5047571;28;20206;-84
2022/10/14 09:29:33;;;;;;;2.20;1.10;;;21.60;33.40;;;;;;5050930;28;20213;-82
2022/10/14 09:32:04;;;;;;;1.67;1.30;;;21.70;29.00;;;;;;5053274;28;20952;-81
2022/10/14 09:34:34;;;;;;;3.42;1.20;;;21.90;26.40;;;;;;5049665;28;20209;-81
2022/10/14 09:37:20;;;;;;;1.67;1.08;;;21.60;29.90;;;;;;5055666;28;20225;-81
2022/10/14 09:39:49;;;;;;;1.33;1.13;;;21.10;33.00;;;;;;5049262;28;20204;-82
2022/10/14 09:42:21;;;;;;;3.13;1.20;;;20.90;32.90;;;;;;5048987;28;20731;-80
2022/10/14 09:45:10;;;;;;;1.73;1.10;;;21.00;29.40;;;;;;5046536;28;20270;-86
2022/10/14 09:47:52;;;;;;;1.63;1.00;;;21.40;29.30;;;;;;5041255;28;20195;-83
2022/10/14 09:50:34;;;;;;;1.15;1.05;;;21.70;31.20;;;;;;5051196;28;20193;-88
2022/10/14 09:53:06;;;;;;;1.00;1.00;;;21.80;28.20;;;;;;5047507;28;20213;-81
2022/10/14 09:55:34;;;;;;;3.10;1.10;;;22.50;25.40;;;;;;5054610;28;20263;-82
2022/10/14 09:58:05;;;;;;;1.08;1.08;;;23.20;22.20;;;;;;5053392;28;20238;-81
2022/10/14 10:00:35;;;;;;;2.55;1.20;;;23.70;23.40;;;;;;5067402;28;20206;-81
2022/10/14 10:03:23;;;;;;;1.38;1.27;;;23.50;21.90;;;;;;5047608;28;20194;-82
2022/10/14 10:06:00;;;;;;;1.00;1.00;;;23.50;20.90;;;;;;5050858;28;20217;-81
2022/10/14 10:08:28;;;;;;;0.82;0.82;;;23.40;20.40;;;;;;5053678;28;20558;-81
2022/10/14 10:11:01;;;;;;;1.42;1.20;;;22.90;22.50;;;;;;5052349;28;20202;-85
2022/10/14 10:13:34;;;;;;;2.28;1.10;;;22.70;22.20;;;;;;5055380;28;20551;-85
2022/10/14 10:16:03;;;;;;;1.40;1.15;;;22.40;24.90;;;;;;5056670;28;20572;-83
2022/10/14 10:18:30;;;;;;;1.00;0.90;;;22.20;25.80;;;;;;5053785;28;20560;-84
2022/10/14 10:21:05;;;;;;;1.25;1.20;;;22.10;21.70;;;;;;5057222;28;20233;-84
2022/10/14 10:23:35;;;;;;;2.38;1.10;;;22.70;21.40;;;;;;5055907;28;20193;-82
2022/10/14 10:26:24;;;;;;;1.38;1.20;;;22.70;20.10;;;;;;5052020;28;20284;-85
2022/10/14 10:28:52;;;;;;;1.30;1.20;;;23.10;19.70;;;;;;5044524;28;20212;-86
2022/10/14 10:31:55;;;;;;;1.02;0.93;;;23.10;18.70;;;;;;5047264;28;20217;-83
2022/10/14 10:34:47;;;;;;;1.60;1.20;;;23.30;18.90;;;;;;4962041;28;20200;-83
2022/10/14 10:37:26;;;;;;;1.30;1.20;;;23.10;21.10;;;;;;4957690;28;20232;-85
2022/10/14 10:40:19;;;;;;;2.28;1.20;;;22.50;24.10;;;;;;4969628;28;20798;-86
2022/10/14 10:42:54;;;;;;;1.23;1.13;;;22.20;23.50;;;;;;4904960;29;20210;-85
2022/10/14 10:45:35;;;;;;;1.98;1.50;;;21.60;23.50;;;;;;4904158;29;20201;-85
2022/10/14 10:48:09;;;;;;;2.42;1.27;;;21.30;25.80;;;;;;4909668;29;20571;-85
2022/10/14 10:50:48;;;;;;;1.48;1.27;;;20.70;25.50;;;;;;4907511;29;20585;-85
2022/10/14 10:54:06;;;;;;;1.38;1.23;;;20.40;30.60;;;;;;4902115;29;20207;-84
2022/10/14 10:56:41;;;;;;;2.88;1.40;;;20.30;27.30;;;;;;4870794;29;20230;-84
2022/10/14 10:59:32;;;;;;;3.17;1.95;;;20.60;25.80;;;;;;4865906;29;20207;-82
2022/10/14 11:02:28;;;;;;;2.60;1.20;;;21.00;25.70;;;;;;4874113;29;20204;-82
2022/10/14 11:05:09;;;;;;;1.80;1.30;;;20.50;27.20;;;;;;4871215;29;20711;-82
2022/10/14 11:13:24;;;;;;;2.88;1.33;;;19.80;31.90;;;;;;4937321;29;20952;-84
2022/10/14 11:15:59;;;;;;;12.30;1.90;;;19.60;31.70;;;;;;4933351;29;20209;-87
2022/10/14 11:18:46;;;;;;;1.77;1.13;;;19.80;31.90;;;;;;4933217;29;20210;-84
2022/10/14 11:21:28;;;;;;;3.20;1.10;;;19.70;31.80;;;;;;5001239;28;20196;-84
2022/10/14 11:24:11;;;;;;;4.03;1.27;;;19.70;31.80;;;;;;5016343;28;20259;-86
2022/10/14 11:26:57;;;;;;;2.75;0.98;;;19.50;31.70;;;;;;5019780;28;20204;-85
2022/10/14 11:29:53;;;;;;;1.30;1.20;;;19.70;31.80;;;;;;5008531;28;20693;-85
2022/10/14 11:32:27;;;;;;;2.60;1.30;;;20.10;32.20;;;;;;4963939;28;21255;-85
2022/10/14 11:35:16;;;;;;;2.00;1.20;;;20.30;32.30;;;;;;4990763;28;20669;-85
2022/10/14 11:37:56;;;;;;;3.17;1.15;;;20.50;30.70;;;;;;4997431;28;20220;-85
2022/10/14 11:40:27;;;;;;;1.77;1.35;;;20.30;26.30;;;;;;4997531;28;20305;-84
2022/10/14 11:43:08;;;;;;;2.38;1.55;;;19.90;27.40;;;;;;4995863;28;20196;-84
2022/10/14 11:45:54;;;;;;;3.58;2.17;;;19.80;28.50;;;;;;4992495;28;20196;-85
2022/10/14 11:48:32;;;;;;;3.97;3.58;;;19.90;30.10;;;;;;4990424;28;20202;-86
2022/10/14 11:51:07;;;;;;;2.13;1.92;;;19.70;31.80;;;;;;4989085;28;20214;-86
2022/10/14 11:53:46;;;;;;;4.25;2.70;;;19.80;30.50;;;;;;4988148;28;20210;-86
2022/10/14 11:56:28;;;;;;;1.70;1.15;;;20.00;30.00;;;;;;4987592;28;20231;-86
2022/10/14 11:58:59;;;;;;;1.50;1.40;;;20.00;28.30;;;;;;4988459;28;20195;-87
2022/10/14 12:01:33;;;;;;;1.45;1.20;;;19.80;27.70;;;;;;4992287;28;20287;-86
2022/10/14 12:04:05;;;;;;;4.20;2.95;;;19.70;30.30;;;;;;4987722;28;20684;-87
2022/10/14 12:06:40;;;;;;;3.17;2.88;;;19.90;32.00;;;;;;4990133;28;20224;-86
2022/10/14 12:09:16;;;;;;;3.20;1.92;;;19.90;28.80;;;;;;5008786;28;20215;-87
2022/10/14 12:11:46;;;;;;;4.10;2.40;;;19.80;31.90;;;;;;5053342;28;20201;-86
2022/10/14 12:14:19;;;;;;;9.60;8.57;;;19.80;31.90;;;;;;5052573;28;20659;-84
2022/10/14 12:16:49;;;;;;;1.67;1.58;;;20.00;29.30;;;;;;5049505;28;20217;-87
2022/10/14 12:19:26;;;;;;;2.50;2.20;;;19.90;30.50;;;;;;5047873;28;20277;-83
2022/10/14 12:21:58;;;;;;;2.53;1.30;;;19.80;31.90;;;;;;5052494;28;20193;-84
2022/10/14 12:24:30;;;;;;;3.47;1.40;;;19.70;30.70;;;;;;5054694;28;20228;-85
2022/10/14 12:27:09;;;;;;;1.85;1.58;;;19.50;30.30;;;;;;5055011;28;20233;-86
2022/10/14 12:29:49;;;;;;;5.53;3.85;;;19.50;31.70;;;;;;5050208;28;20216;-85
2022/10/14 12:32:31;;;;;;;2.53;1.45;;;19.80;31.90;;;;;;5052136;28;20193;-85
2022/10/14 12:35:00;;;;;;;1.63;1.10;;;19.80;31.90;;;;;;5047903;28;20464;-84
2022/10/14 12:37:48;;;;;;;2.15;1.25;;;19.90;32.00;;;;;;5047244;28;20230;-84
2022/10/14 12:40:30;;;;;;;1.70;1.20;;;19.80;31.90;;;;;;5050598;28;20229;-83
2022/10/14 12:43:04;;;;;;;2.03;1.30;;;19.80;31.90;;;;;;5059358;28;20213;-84
2022/10/14 12:45:36;;;;;;;1.35;1.25;;;19.60;33.70;;;;;;5053881;28;20202;-84
2022/10/14 12:48:14;;;;;;;2.65;1.30;;;19.40;38.20;;;;;;5054717;28;20564;-83
2022/10/14 12:50:45;;;;;;;2.15;1.20;;;19.20;34.20;;;;;;5045301;28;20203;-84
2022/10/14 12:53:23;;;;;;;1.73;1.33;;;19.00;33.30;;;;;;5053508;28;20202;-84
2022/10/14 12:55:53;;;;;;;2.40;1.30;;;18.90;35.80;;;;;;5060423;28;20239;-83
2022/10/14 12:58:33;;;;;;;2.45;2.10;;;19.00;35.30;;;;;;5055149;28;20237;-84
2022/10/14 13:01:03;;;;;;;2.47;1.60;;;19.00;40.00;;;;;;5053663;28;20208;-83
2022/10/14 13:03:43;;;;;;;1.92;1.17;;;19.00;40.20;;;;;;5056345;28;20191;-83
2022/10/14 13:06:29;;;;;;;1.92;1.27;;;18.80;42.80;;;;;;5049624;28;20220;-84
2022/10/14 13:09:29;;;;;;;2.28;1.65;;;18.70;42.10;;;;;;5049379;28;20193;-84
2022/10/14 13:12:39;;;;;;;4.88;1.27;;;18.80;40.20;;;;;;5056539;28;20265;-83
2022/10/14 13:15:35;;;;;;;3.35;2.58;;;18.90;39.30;;;;;;5051161;28;20193;-83
2022/10/14 13:18:33;;;;;;;4.55;1.23;;;18.90;45.30;;;;;;5046515;28;20228;-84
2022/10/14 13:21:02;;;;;;;1.50;1.30;;;18.80;41.90;;;;;;4994979;28;20215;-85
2022/10/14 13:23:40;;;;;;;81.68;68.22;;;18.70;42.40;;;;;;4996952;28;20203;-84
2022/10/14 13:26:17;;;;;;;76.45;63.78;;;18.90;42.40;;;;;;4996596;28;20204;-84
2022/10/14 13:28:56;;;;;;;2.65;2.40;;;19.10;41.20;;;;;;4995981;28;20199;-84
2022/10/14 13:31:29;;;;;;;3.35;1.10;;;19.30;40.00;;;;;;4994105;28;20204;-83
2022/10/14 13:34:11;;;;;;;7.68;6.75;;;19.10;36.60;;;;;;4992204;28;20211;-83
2022/10/14 13:37:16;;;;;;;4.72;2.55;;;19.10;38.00;;;;;;4995031;28;20416;-83
2022/10/14 13:39:47;;;;;;;21.23;17.98;;;19.00;39.10;;;;;;4994660;28;20250;-84
2022/10/14 13:42:23;;;;;;;8.90;7.50;;;18.80;45.00;;;;;;4991218;28;20645;-83
2022/10/14 13:45:07;;;;;;;8.32;7.28;;;18.70;45.70;;;;;;4993402;28;20681;-84
2022/10/14 13:47:36;;;;;;;6.60;5.93;;;18.70;47.40;;;;;;4994885;28;20300;-83
2022/10/14 13:50:05;;;;;;;5.25;4.13;;;18.50;54.60;;;;;;4997912;28;20191;-84
2022/10/14 13:53:03;;;;;;;5.70;4.05;;;18.20;59.30;;;;;;4994426;28;20251;-83
2022/10/14 13:55:44;;;;;;;8.10;6.05;;;17.90;64.20;;;;;;4990287;28;20199;-86
2022/10/14 13:58:13;;;;;;;7.07;5.05;;;17.70;65.80;;;;;;5023106;28;20864;-86
2022/10/14 14:00:49;;;;;;;4.68;1.83;;;17.60;64.30;;;;;;5038691;28;20198;-86
2022/10/14 14:03:22;;;;;;;2.47;1.50;;;17.50;65.30;;;;;;5035237;28;20285;-86